Time;durP1;ratioP1;P1;durP2;ratioP2;P2;SDS_P1;SDS_P2;PMS_P1;PMS_P2;Temp;Humidity;BMP_temperature;BMP_pressure;BME280_temperature;BME280_humidity;BME280_pressure;Samples;Min_cycle;Max_cycle;Signal;HPM_P1;HPM_P2
2023/10/21 00:00:22;;;;;;;2.80;1.20;;;17.40;99.90;;;;;;5063195;28;20179;-88
2023/10/21 00:02:50;;;;;;;2.50;1.00;;;17.40;99.90;;;;;;5042634;28;20702;-88
2023/10/21 00:05:15;;;;;;;1.10;1.00;;;17.40;99.90;;;;;;5074855;28;20262;-88
2023/10/21 00:07:42;;;;;;;1.17;1.00;;;17.40;99.90;;;;;;5072914;28;20336;-88
2023/10/21 00:10:08;;;;;;;1.10;0.90;;;17.40;99.90;;;;;;5068896;28;20168;-88
2023/10/21 00:12:35;;;;;;;1.47;1.00;;;17.30;99.90;;;;;;5053562;28;20483;-88
2023/10/21 00:15:01;;;;;;;1.13;0.90;;;17.30;99.90;;;;;;5062023;28;20426;-88
2023/10/21 00:17:28;;;;;;;1.30;0.90;;;17.40;99.90;;;;;;5073265;28;20230;-88
2023/10/21 00:19:54;;;;;;;1.50;1.20;;;17.30;99.90;;;;;;5067373;28;20175;-88
2023/10/21 00:22:19;;;;;;;0.80;0.80;;;17.30;99.90;;;;;;5054269;28;20529;-88
2023/10/21 00:24:45;;;;;;;1.10;1.00;;;17.30;99.90;;;;;;5064729;28;20232;-88
2023/10/21 00:27:11;;;;;;;1.43;0.97;;;17.30;99.90;;;;;;5051784;28;20214;-88
2023/10/21 00:29:37;;;;;;;0.90;0.90;;;17.40;99.90;;;;;;5052820;28;20176;-88
2023/10/21 00:32:04;;;;;;;1.13;1.00;;;17.40;99.90;;;;;;5072125;28;20350;-88
2023/10/21 00:34:30;;;;;;;1.00;0.90;;;17.40;99.90;;;;;;5065663;28;20195;-88
2023/10/21 00:36:56;;;;;;;1.00;0.83;;;17.40;99.90;;;;;;5061627;28;20195;-88
2023/10/21 00:39:22;;;;;;;1.63;0.90;;;17.40;99.90;;;;;;5071666;28;20175;-88
2023/10/21 00:41:48;;;;;;;1.27;0.83;;;17.30;99.90;;;;;;5055741;28;20279;-88
2023/10/21 00:44:13;;;;;;;0.83;0.83;;;17.30;99.90;;;;;;5057507;28;20270;-88
2023/10/21 00:46:40;;;;;;;1.30;1.03;;;17.30;99.90;;;;;;5072895;28;20168;-88
2023/10/21 00:49:07;;;;;;;1.20;1.10;;;17.30;99.90;;;;;;5072482;28;20206;-88
2023/10/21 00:51:33;;;;;;;1.00;0.90;;;17.30;99.90;;;;;;5062588;28;20179;-88
2023/10/21 00:54:00;;;;;;;0.90;0.90;;;17.30;99.90;;;;;;5071475;28;20233;-88
2023/10/21 00:56:27;;;;;;;0.97;0.90;;;17.30;99.90;;;;;;5058384;28;20168;-88
2023/10/21 00:58:53;;;;;;;1.43;0.90;;;17.30;99.90;;;;;;5074093;28;20208;-88
2023/10/21 01:01:19;;;;;;;0.80;0.80;;;17.30;99.90;;;;;;5061874;28;20380;-88
2023/10/21 01:03:45;;;;;;;1.00;0.90;;;17.30;99.90;;;;;;5074289;28;20178;-88
2023/10/21 01:06:11;;;;;;;0.80;0.80;;;17.30;99.90;;;;;;5058705;28;20179;-88
2023/10/21 01:08:39;;;;;;;0.93;0.90;;;17.30;99.90;;;;;;5071253;28;20378;-88
2023/10/21 01:11:05;;;;;;;1.17;0.97;;;17.30;99.90;;;;;;5062297;28;20235;-88
2023/10/21 01:13:31;;;;;;;1.80;0.80;;;17.30;99.90;;;;;;5068204;28;20186;-87
2023/10/21 01:15:56;;;;;;;1.27;0.90;;;17.30;99.90;;;;;;5069060;28;20434;-88
2023/10/21 01:18:24;;;;;;;0.77;0.77;;;17.30;99.90;;;;;;5070123;28;20195;-88
2023/10/21 01:20:52;;;;;;;1.13;0.70;;;17.30;99.90;;;;;;5071172;28;20233;-88
2023/10/21 01:23:18;;;;;;;0.80;0.80;;;17.30;99.90;;;;;;5067946;28;20172;-88
2023/10/21 01:25:43;;;;;;;1.43;0.90;;;17.30;99.90;;;;;;5067978;28;20180;-88
2023/10/21 01:28:09;;;;;;;0.80;0.80;;;17.30;99.90;;;;;;5067266;28;20179;-88
2023/10/21 01:30:35;;;;;;;0.90;0.90;;;17.30;99.90;;;;;;5055674;28;20203;-87
2023/10/21 01:33:00;;;;;;;0.97;0.90;;;17.30;99.90;;;;;;5066314;28;20222;-88
2023/10/21 01:35:26;;;;;;;1.00;0.90;;;17.30;99.90;;;;;;5054960;28;20249;-88
2023/10/21 01:37:52;;;;;;;1.00;0.90;;;17.30;99.90;;;;;;5062904;28;20191;-88
2023/10/21 01:40:17;;;;;;;1.00;0.90;;;17.30;99.90;;;;;;5074464;28;20229;-88
2023/10/21 01:42:44;;;;;;;0.70;0.70;;;17.30;99.90;;;;;;5067206;28;20183;-88
2023/10/21 01:45:10;;;;;;;0.80;0.80;;;17.30;99.90;;;;;;5054887;28;20187;-88
2023/10/21 01:47:36;;;;;;;1.17;0.90;;;17.30;99.90;;;;;;5065076;28;20179;-88
2023/10/21 01:50:07;;;;;;;0.80;0.80;;;17.30;99.90;;;;;;5051559;28;20242;-88
2023/10/21 01:52:35;;;;;;;1.37;1.10;;;17.30;99.90;;;;;;5057743;28;20556;-88
2023/10/21 01:55:05;;;;;;;1.83;0.90;;;17.30;99.90;;;;;;5057106;28;20208;-88
2023/10/21 01:57:32;;;;;;;0.80;0.80;;;17.30;99.90;;;;;;5060781;28;20203;-88
2023/10/21 02:00:01;;;;;;;1.83;0.80;;;17.30;99.90;;;;;;5057547;28;20269;-88
2023/10/21 02:02:28;;;;;;;1.13;0.93;;;17.30;99.90;;;;;;5057663;28;20174;-88
2023/10/21 02:04:54;;;;;;;0.90;0.90;;;17.30;99.90;;;;;;5055813;28;20620;-88
2023/10/21 02:07:20;;;;;;;0.70;0.70;;;17.30;99.90;;;;;;5042026;28;20169;-88
2023/10/21 02:09:45;;;;;;;0.93;0.90;;;17.30;99.90;;;;;;5064689;28;20175;-88
2023/10/21 02:12:12;;;;;;;0.90;0.80;;;17.30;99.90;;;;;;5071699;28;20163;-87
2023/10/21 02:14:37;;;;;;;1.20;0.90;;;17.30;99.90;;;;;;5062042;28;20172;-88
2023/10/21 02:17:05;;;;;;;1.80;0.90;;;17.30;99.90;;;;;;5070347;28;20199;-87
2023/10/21 02:19:31;;;;;;;1.00;0.90;;;17.30;99.90;;;;;;5060827;28;20253;-87
2023/10/21 02:21:56;;;;;;;1.13;0.90;;;17.40;99.90;;;;;;5070569;28;20453;-87
2023/10/21 02:24:22;;;;;;;0.87;0.80;;;17.30;99.90;;;;;;5059281;28;20163;-87
2023/10/21 02:26:49;;;;;;;0.97;0.80;;;17.40;99.90;;;;;;5071836;28;20175;-88
2023/10/21 02:29:15;;;;;;;0.80;0.80;;;17.30;99.90;;;;;;5060385;28;20243;-87
2023/10/21 02:31:41;;;;;;;0.80;0.70;;;17.30;99.90;;;;;;5072027;28;20179;-87
2023/10/21 02:34:07;;;;;;;0.80;0.80;;;17.40;99.90;;;;;;5060275;28;20221;-87
2023/10/21 02:36:34;;;;;;;1.07;0.87;;;17.40;99.90;;;;;;5052994;28;20206;-87
2023/10/21 02:39:00;;;;;;;0.80;0.80;;;17.30;99.90;;;;;;5062097;28;20183;-87
2023/10/21 02:41:26;;;;;;;0.90;0.90;;;17.40;99.90;;;;;;5070191;28;20430;-88
2023/10/21 02:43:52;;;;;;;1.73;0.80;;;17.40;99.90;;;;;;5063959;28;20173;-87
2023/10/21 02:46:18;;;;;;;1.43;0.80;;;17.40;99.90;;;;;;5062199;28;20202;-87
2023/10/21 02:48:45;;;;;;;0.90;0.80;;;17.40;99.90;;;;;;5070294;28;20186;-87
2023/10/21 02:51:16;;;;;;;0.90;0.90;;;17.40;99.90;;;;;;5063864;28;20172;-87
2023/10/21 02:53:42;;;;;;;0.90;0.90;;;17.40;99.90;;;;;;5070320;28;20175;-87
2023/10/21 02:56:11;;;;;;;1.20;0.83;;;17.30;99.90;;;;;;5067451;28;20242;-87
2023/10/21 02:58:37;;;;;;;0.83;0.83;;;17.40;99.90;;;;;;5071769;28;20225;-87
2023/10/21 03:01:04;;;;;;;0.90;0.73;;;17.40;99.90;;;;;;5063560;28;20279;-87
2023/10/21 03:03:30;;;;;;;0.83;0.80;;;17.40;99.90;;;;;;5056400;28;20215;-87
2023/10/21 03:05:57;;;;;;;0.80;0.80;;;17.40;99.90;;;;;;5066619;28;20237;-87
2023/10/21 03:08:25;;;;;;;0.80;0.80;;;17.40;99.90;;;;;;5078948;28;20182;-87
2023/10/21 03:10:51;;;;;;;0.80;0.80;;;17.30;99.90;;;;;;5068402;28;20172;-87
2023/10/21 03:13:17;;;;;;;1.63;0.90;;;17.30;99.90;;;;;;5058348;28;20172;-87
2023/10/21 03:15:50;;;;;;;0.80;0.80;;;17.40;99.90;;;;;;5069219;28;20241;-87
2023/10/21 03:18:15;;;;;;;0.80;0.80;;;17.40;99.90;;;;;;5056931;28;20219;-87
2023/10/21 03:20:41;;;;;;;1.23;0.90;;;17.40;99.90;;;;;;5067402;28;20172;-87
2023/10/21 03:23:07;;;;;;;0.80;0.80;;;17.40;99.90;;;;;;5052889;28;20242;-87
2023/10/21 03:25:33;;;;;;;0.80;0.80;;;17.40;99.90;;;;;;5057941;28;20167;-87
2023/10/21 03:28:00;;;;;;;0.90;0.80;;;17.30;99.90;;;;;;5054605;28;20444;-87
2023/10/21 03:30:25;;;;;;;0.93;0.87;;;17.40;99.90;;;;;;5050298;28;20179;-87
2023/10/21 03:33:04;;;;;;;0.83;0.73;;;17.30;99.90;;;;;;5058469;28;20185;-87
2023/10/21 03:35:42;;;;;;;0.70;0.70;;;17.40;99.90;;;;;;5050599;28;20241;-87
2023/10/21 03:38:14;;;;;;;0.70;0.70;;;17.40;99.90;;;;;;5063910;28;20302;-87
2023/10/21 03:40:39;;;;;;;0.80;0.80;;;17.30;99.90;;;;;;5055532;28;20161;-87
2023/10/21 03:43:05;;;;;;;0.80;0.80;;;17.40;99.90;;;;;;5068529;28;20184;-87
2023/10/21 03:45:31;;;;;;;0.80;0.80;;;17.40;99.90;;;;;;5069456;28;20275;-87
2023/10/21 03:47:57;;;;;;;0.70;0.70;;;17.40;99.90;;;;;;5068507;28;20204;-87
2023/10/21 03:50:27;;;;;;;0.80;0.80;;;17.40;99.90;;;;;;5056041;28;20282;-87
2023/10/21 03:52:53;;;;;;;0.70;0.70;;;17.40;99.90;;;;;;5069638;28;20172;-87
2023/10/21 03:55:18;;;;;;;0.90;0.80;;;17.40;99.90;;;;;;5057738;28;20230;-87
2023/10/21 03:57:44;;;;;;;0.60;0.60;;;17.40;99.90;;;;;;5069520;28;20204;-86
2023/10/21 04:00:41;;;;;;;0.70;0.70;;;17.30;99.90;;;;;;5057069;28;20270;-86
2023/10/21 04:03:07;;;;;;;0.90;0.90;;;17.30;99.90;;;;;;5064765;28;20609;-86
2023/10/21 04:05:36;;;;;;;0.80;0.80;;;17.40;99.90;;;;;;5076509;28;20548;-86
2023/10/21 04:08:07;;;;;;;0.83;0.80;;;17.40;99.90;;;;;;5063746;28;20175;-86
2023/10/21 04:10:33;;;;;;;0.70;0.70;;;17.30;99.90;;;;;;5074411;28;20199;-86
2023/10/21 04:13:01;;;;;;;1.07;0.70;;;17.40;99.90;;;;;;5063524;28;20206;-87
2023/10/21 04:15:28;;;;;;;1.40;0.67;;;17.40;99.90;;;;;;5073441;28;20188;-87
2023/10/21 04:17:54;;;;;;;0.70;0.70;;;17.30;99.90;;;;;;5059608;28;20215;-87
2023/10/21 04:20:20;;;;;;;0.80;0.70;;;17.30;99.90;;;;;;5072766;28;20167;-87
2023/10/21 04:22:45;;;;;;;0.70;0.70;;;17.40;99.90;;;;;;5057492;28;20527;-87
2023/10/21 04:25:11;;;;;;;0.97;0.90;;;17.40;99.90;;;;;;5073636;28;20423;-87
2023/10/21 04:27:37;;;;;;;0.77;0.70;;;17.40;99.90;;;;;;5062386;28;20278;-87
2023/10/21 04:30:03;;;;;;;0.97;0.80;;;17.40;99.90;;;;;;5066317;28;20274;-87
2023/10/21 04:32:30;;;;;;;0.70;0.70;;;17.40;99.90;;;;;;5072708;28;20168;-87
2023/10/21 04:34:56;;;;;;;0.90;0.73;;;17.30;99.90;;;;;;5055875;28;20279;-87
2023/10/21 04:37:24;;;;;;;0.80;0.80;;;17.40;99.90;;;;;;5044017;28;20217;-87
2023/10/21 04:39:49;;;;;;;0.70;0.70;;;17.30;99.90;;;;;;5065052;28;20168;-87
2023/10/21 04:42:15;;;;;;;0.90;0.80;;;17.40;99.90;;;;;;5051370;28;20458;-87
2023/10/21 04:44:41;;;;;;;1.03;0.80;;;17.40;99.90;;;;;;5061428;28;20184;-87
2023/10/21 04:47:07;;;;;;;0.90;0.90;;;17.40;99.90;;;;;;5037960;28;20172;-87
2023/10/21 04:49:33;;;;;;;0.60;0.60;;;17.40;99.90;;;;;;5066845;28;20263;-87
2023/10/21 04:51:58;;;;;;;1.00;0.80;;;17.30;99.90;;;;;;5054036;28;20179;-87
2023/10/21 04:54:24;;;;;;;0.80;0.80;;;17.40;99.90;;;;;;5062170;28;20233;-87
2023/10/21 04:56:50;;;;;;;0.97;0.77;;;17.30;99.90;;;;;;5059584;28;20561;-87
2023/10/21 04:59:16;;;;;;;0.60;0.60;;;17.40;99.90;;;;;;5059239;28;20255;-87
2023/10/21 05:01:42;;;;;;;0.70;0.70;;;17.40;99.90;;;;;;5074497;28;20168;-86
2023/10/21 05:04:10;;;;;;;1.00;0.90;;;17.40;99.90;;;;;;5068990;28;20171;-87
2023/10/21 05:06:38;;;;;;;1.33;0.80;;;17.40;99.90;;;;;;5052110;28;20173;-87
2023/10/21 05:09:04;;;;;;;0.63;0.63;;;17.40;99.90;;;;;;5051934;28;20279;-87
2023/10/21 05:11:30;;;;;;;0.70;0.70;;;17.40;99.90;;;;;;5072540;28;20489;-87
2023/10/21 05:14:02;;;;;;;1.43;0.70;;;17.40;99.90;;;;;;5072604;28;20713;-87
2023/10/21 05:16:31;;;;;;;0.70;0.70;;;17.40;99.90;;;;;;5056325;28;20173;-87
2023/10/21 05:18:57;;;;;;;0.93;0.90;;;17.40;99.90;;;;;;5049375;28;20207;-87
2023/10/21 05:21:27;;;;;;;0.63;0.63;;;17.40;99.90;;;;;;5060083;28;20343;-87
2023/10/21 05:23:56;;;;;;;0.80;0.80;;;17.40;99.90;;;;;;5056304;28;20198;-87
2023/10/21 05:26:28;;;;;;;0.70;0.70;;;17.30;99.90;;;;;;5061114;28;20656;-87
2023/10/21 05:28:58;;;;;;;0.70;0.70;;;17.40;99.90;;;;;;5066787;28;20182;-87
2023/10/21 05:31:24;;;;;;;1.33;0.90;;;17.40;99.90;;;;;;5063652;28;20175;-87
2023/10/21 05:33:49;;;;;;;0.60;0.60;;;17.40;99.90;;;;;;5074408;28;20176;-87
2023/10/21 05:36:16;;;;;;;1.70;0.60;;;17.40;99.90;;;;;;5064701;28;20196;-86
2023/10/21 05:38:42;;;;;;;0.80;0.80;;;17.40;99.90;;;;;;5070932;28;20600;-86
2023/10/21 05:41:07;;;;;;;0.80;0.80;;;17.40;99.90;;;;;;5050898;28;20184;-87
2023/10/21 05:43:33;;;;;;;0.93;0.87;;;17.40;99.90;;;;;;5032027;28;20456;-87
2023/10/21 05:46:17;;;;;;;0.60;0.60;;;17.40;99.90;;;;;;5063512;28;20171;-87
2023/10/21 05:48:47;;;;;;;0.60;0.60;;;17.40;99.90;;;;;;5052659;28;20172;-88
2023/10/21 05:51:12;;;;;;;0.87;0.80;;;17.40;99.90;;;;;;5069382;28;20174;-87
2023/10/21 05:53:47;;;;;;;0.63;0.63;;;17.40;99.90;;;;;;5051575;28;20188;-87
2023/10/21 05:56:15;;;;;;;0.83;0.80;;;17.40;99.90;;;;;;5065160;28;20179;-87
2023/10/21 05:58:41;;;;;;;1.07;0.90;;;17.40;99.90;;;;;;5051649;28;20212;-87
2023/10/21 06:03:50;;;;;;;1.00;0.90;;;17.40;99.90;;;;;;5032873;28;20172;-87
2023/10/21 06:06:17;;;;;;;0.70;0.70;;;17.40;99.90;;;;;;5060124;28;20233;-87
2023/10/21 06:08:46;;;;;;;0.73;0.70;;;17.40;99.90;;;;;;5050971;28;20173;-87
2023/10/21 06:11:17;;;;;;;0.90;0.90;;;17.40;99.90;;;;;;5055646;28;20176;-87
2023/10/21 06:13:48;;;;;;;1.30;0.90;;;17.40;99.90;;;;;;5054198;28;20187;-87
2023/10/21 06:16:13;;;;;;;0.70;0.70;;;17.40;99.90;;;;;;5060784;28;20183;-87
2023/10/21 06:18:40;;;;;;;0.90;0.90;;;17.40;99.90;;;;;;5056177;28;20208;-87
2023/10/21 06:21:12;;;;;;;0.60;0.60;;;17.40;99.90;;;;;;5058069;28;20185;-87
2023/10/21 06:23:45;;;;;;;1.80;0.63;;;17.40;99.90;;;;;;5052193;28;20242;-87
2023/10/21 06:26:24;;;;;;;0.80;0.70;;;17.40;99.90;;;;;;5025161;28;20234;-87
2023/10/21 06:28:49;;;;;;;2.07;1.00;;;17.40;99.90;;;;;;5035797;28;20270;-85
2023/10/21 06:31:21;;;;;;;0.83;0.67;;;17.50;99.90;;;;;;5032702;28;20200;-86
2023/10/21 06:33:46;;;;;;;1.50;0.90;;;17.50;99.90;;;;;;5035734;28;20370;-86
2023/10/21 06:36:12;;;;;;;0.70;0.70;;;17.40;99.90;;;;;;5029572;28;20200;-85
2023/10/21 06:38:41;;;;;;;0.90;0.67;;;17.40;99.90;;;;;;5046982;28;20456;-86
2023/10/21 06:41:11;;;;;;;0.90;0.70;;;17.40;99.90;;;;;;5041067;28;20164;-86
2023/10/21 06:43:37;;;;;;;1.00;0.70;;;17.40;99.90;;;;;;5026633;28;20172;-85
2023/10/21 06:46:03;;;;;;;0.80;0.80;;;17.50;99.90;;;;;;5048316;28;20296;-87
2023/10/21 06:48:29;;;;;;;0.77;0.77;;;17.40;99.90;;;;;;5039162;28;20176;-87
2023/10/21 06:50:59;;;;;;;0.73;0.73;;;17.50;99.90;;;;;;5027645;28;20600;-87
2023/10/21 06:53:26;;;;;;;0.73;0.70;;;17.50;99.90;;;;;;5038886;28;20546;-87
2023/10/21 06:55:52;;;;;;;0.87;0.80;;;17.50;99.90;;;;;;5049319;28;20179;-87
2023/10/21 06:58:19;;;;;;;2.83;1.00;;;17.50;99.90;;;;;;5037100;28;20205;-87
2023/10/21 07:00:45;;;;;;;1.10;1.00;;;17.50;99.90;;;;;;5049268;28;20573;-87
2023/10/21 07:03:11;;;;;;;0.70;0.70;;;17.50;99.90;;;;;;5036566;28;20227;-87
2023/10/21 07:05:41;;;;;;;1.93;0.90;;;17.50;99.90;;;;;;5058050;28;20300;-87
2023/10/21 07:08:07;;;;;;;1.73;0.70;;;17.40;99.90;;;;;;5038229;28;20177;-86
2023/10/21 07:10:33;;;;;;;1.30;1.00;;;17.50;99.90;;;;;;5062572;28;20176;-86
2023/10/21 07:12:59;;;;;;;1.13;0.70;;;17.50;99.90;;;;;;5040946;28;20574;-86
2023/10/21 07:15:27;;;;;;;1.47;1.00;;;17.50;99.90;;;;;;5031259;28;20217;-87
2023/10/21 07:17:53;;;;;;;0.77;0.70;;;17.60;99.90;;;;;;5032277;28;20200;-88
2023/10/21 07:20:20;;;;;;;1.00;0.80;;;17.60;99.90;;;;;;5034699;28;20169;-86
2023/10/21 07:22:45;;;;;;;0.73;0.70;;;17.60;99.90;;;;;;5028185;28;20177;-86
2023/10/21 07:25:11;;;;;;;1.03;0.70;;;17.60;99.90;;;;;;5037789;28;20179;-86
2023/10/21 07:27:37;;;;;;;0.70;0.70;;;17.60;99.90;;;;;;5048206;28;20613;-86
2023/10/21 07:30:17;;;;;;;1.20;0.80;;;17.60;99.90;;;;;;5034878;28;20184;-86
2023/10/21 07:32:47;;;;;;;1.00;0.90;;;17.60;99.90;;;;;;5048134;28;20173;-86
2023/10/21 07:35:21;;;;;;;0.90;0.90;;;17.60;99.90;;;;;;5040854;28;20215;-86
2023/10/21 07:37:47;;;;;;;0.90;0.80;;;17.60;99.90;;;;;;5046299;28;20208;-86
2023/10/21 07:40:13;;;;;;;0.80;0.70;;;17.70;99.90;;;;;;5036063;28;20457;-86
2023/10/21 07:42:40;;;;;;;2.47;0.93;;;17.70;99.90;;;;;;5026274;28;20664;-86
2023/10/21 07:45:06;;;;;;;1.00;0.90;;;17.70;99.90;;;;;;5043570;28;20448;-86
2023/10/21 07:47:43;;;;;;;2.17;0.90;;;17.70;99.90;;;;;;5029477;28;20180;-86
2023/10/21 07:50:10;;;;;;;1.90;0.90;;;17.70;99.90;;;;;;5034399;28;20186;-86
2023/10/21 07:52:43;;;;;;;2.10;0.90;;;17.70;99.90;;;;;;5050473;28;20181;-87
2023/10/21 07:55:12;;;;;;;3.07;1.00;;;17.70;99.90;;;;;;5037215;28;20181;-87
2023/10/21 07:57:39;;;;;;;1.40;0.83;;;17.70;99.90;;;;;;5052250;28;20659;-87
2023/10/21 08:00:13;;;;;;;1.10;0.93;;;17.80;99.90;;;;;;5036317;28;20195;-86
2023/10/21 08:02:48;;;;;;;1.10;0.80;;;17.80;99.90;;;;;;5050111;28;20285;-86
2023/10/21 08:05:15;;;;;;;2.67;1.20;;;17.80;99.90;;;;;;5041455;28;20297;-87
2023/10/21 08:07:41;;;;;;;3.60;1.00;;;17.80;99.90;;;;;;5049854;28;20530;-87
2023/10/21 08:10:09;;;;;;;7.47;1.10;;;17.80;99.90;;;;;;5038146;28;20184;-87
2023/10/21 08:12:35;;;;;;;1.70;0.80;;;17.80;99.90;;;;;;5045904;28;20242;-86
2023/10/21 08:15:08;;;;;;;1.77;1.20;;;17.80;99.90;;;;;;5040866;28;20196;-87
2023/10/21 08:17:35;;;;;;;1.53;0.80;;;17.80;99.90;;;;;;5042646;28;20599;-87
2023/10/21 08:20:01;;;;;;;1.67;1.00;;;17.90;99.90;;;;;;5031672;28;20172;-86
2023/10/21 08:22:27;;;;;;;1.90;1.07;;;17.90;99.90;;;;;;5038758;28;20172;-87
2023/10/21 08:24:53;;;;;;;2.03;1.00;;;17.90;99.90;;;;;;5042162;28;20457;-87
2023/10/21 08:27:18;;;;;;;5.43;1.00;;;18.00;99.90;;;;;;5037714;28;20176;-86
2023/10/21 08:29:45;;;;;;;1.10;1.00;;;18.00;99.90;;;;;;5046129;28;20199;-87
2023/10/21 08:32:21;;;;;;;2.73;1.20;;;18.00;99.90;;;;;;5038310;28;20211;-87
2023/10/21 08:34:46;;;;;;;1.33;1.00;;;18.10;99.90;;;;;;5049398;28;20175;-87
2023/10/21 08:37:19;;;;;;;3.83;1.07;;;18.20;99.90;;;;;;5028926;28;20282;-87
2023/10/21 08:39:48;;;;;;;3.97;1.10;;;18.30;99.90;;;;;;5031600;28;20212;-87
2023/10/21 08:42:27;;;;;;;2.37;1.03;;;18.30;99.90;;;;;;5034307;28;20182;-87
2023/10/21 08:44:54;;;;;;;4.80;1.20;;;18.40;99.90;;;;;;5044386;28;20400;-87
2023/10/21 08:47:31;;;;;;;1.73;1.07;;;18.40;99.90;;;;;;5039962;28;20177;-87
2023/10/21 08:50:15;;;;;;;2.00;0.90;;;18.40;99.90;;;;;;5027829;28;20172;-87
2023/10/21 08:52:45;;;;;;;4.50;1.30;;;18.40;99.90;;;;;;5042437;28;20242;-87
2023/10/21 08:55:23;;;;;;;8.40;1.30;;;18.40;99.90;;;;;;5031969;28;20279;-88
2023/10/21 08:57:49;;;;;;;3.83;1.20;;;18.40;99.90;;;;;;5036649;28;20241;-88
2023/10/21 09:00:17;;;;;;;3.47;1.20;;;18.40;99.90;;;;;;5045841;28;20662;-87
2023/10/21 09:02:43;;;;;;;3.50;1.30;;;18.40;99.90;;;;;;5033367;28;20256;-88
2023/10/21 09:05:10;;;;;;;6.07;1.23;;;18.30;99.90;;;;;;5047571;28;20168;-88
2023/10/21 09:07:49;;;;;;;3.00;1.63;;;18.30;99.90;;;;;;5034272;28;20342;-88
2023/10/21 09:10:16;;;;;;;1.80;1.30;;;18.40;99.90;;;;;;5046605;28;20172;-88
2023/10/21 09:12:42;;;;;;;2.93;1.53;;;18.40;99.90;;;;;;5036868;28;20349;-88
2023/10/21 09:15:09;;;;;;;2.17;1.17;;;18.30;99.90;;;;;;5051614;28;20256;-88
2023/10/21 09:18:12;;;;;;;4.70;1.30;;;18.30;99.90;;;;;;5038353;28;20200;-89
2023/10/21 09:20:37;;;;;;;3.23;1.23;;;18.30;99.90;;;;;;5010607;28;20507;-87
2023/10/21 09:23:05;;;;;;;2.70;1.20;;;18.30;99.90;;;;;;5037231;28;20369;-87
2023/10/21 09:25:31;;;;;;;3.83;1.13;;;18.30;99.90;;;;;;5027049;28;20181;-87
2023/10/21 09:27:56;;;;;;;3.80;1.27;;;18.30;99.90;;;;;;5039979;28;20438;-87
2023/10/21 09:30:25;;;;;;;2.23;1.30;;;18.30;99.90;;;;;;5030041;28;20177;-87
2023/10/21 09:33:03;;;;;;;2.00;1.20;;;18.30;99.90;;;;;;5027216;28;20183;-86
2023/10/21 09:35:30;;;;;;;2.40;1.00;;;18.30;99.90;;;;;;5045018;28;20526;-87
2023/10/21 09:37:57;;;;;;;2.43;1.00;;;18.30;99.90;;;;;;5041161;28;20459;-87
2023/10/21 09:40:24;;;;;;;2.47;0.90;;;18.30;99.90;;;;;;5043136;28;20177;-87
2023/10/21 09:42:54;;;;;;;1.80;0.90;;;18.30;99.90;;;;;;5035379;28;20168;-87
2023/10/21 09:45:21;;;;;;;1.13;0.80;;;18.30;99.90;;;;;;5034239;28;20242;-87
2023/10/21 09:47:47;;;;;;;2.73;1.00;;;18.30;99.90;;;;;;5031152;28;20176;-87
2023/10/21 09:50:14;;;;;;;1.43;0.97;;;18.40;99.90;;;;;;5035076;28;20196;-87
2023/10/21 09:52:57;;;;;;;1.47;0.80;;;18.40;99.90;;;;;;5030241;28;20415;-87
2023/10/21 09:55:25;;;;;;;1.07;0.80;;;18.40;99.90;;;;;;5037742;28;20331;-87
2023/10/21 09:57:55;;;;;;;1.17;0.90;;;18.50;99.90;;;;;;5043842;28;20655;-87
2023/10/21 10:00:24;;;;;;;2.00;1.00;;;18.50;99.90;;;;;;5038046;28;20172;-87
2023/10/21 10:02:53;;;;;;;1.33;0.80;;;18.50;99.90;;;;;;5045117;28;20189;-87
2023/10/21 10:05:20;;;;;;;0.77;0.77;;;18.50;99.90;;;;;;5033308;28;20164;-87
2023/10/21 10:07:48;;;;;;;3.53;1.10;;;18.50;99.90;;;;;;5044054;28;20251;-88
2023/10/21 10:10:16;;;;;;;1.07;0.80;;;18.60;99.90;;;;;;5034522;28;20204;-87
2023/10/21 10:12:49;;;;;;;2.03;0.70;;;18.60;99.90;;;;;;5046121;28;20229;-88
2023/10/21 10:15:39;;;;;;;2.50;0.87;;;18.60;99.90;;;;;;5037660;28;20439;-87
2023/10/21 10:18:07;;;;;;;1.33;0.90;;;18.60;99.90;;;;;;5029081;28;20209;-87
2023/10/21 10:20:33;;;;;;;2.27;1.00;;;18.60;99.90;;;;;;5032103;28;20173;-86
2023/10/21 10:23:04;;;;;;;0.70;0.70;;;18.60;99.90;;;;;;5044892;28;20422;-86
2023/10/21 10:25:35;;;;;;;1.70;0.87;;;18.60;99.90;;;;;;5033817;28;20172;-87
2023/10/21 10:28:04;;;;;;;1.73;0.90;;;18.60;99.90;;;;;;5053171;28;20189;-86
2023/10/21 10:30:34;;;;;;;0.90;0.70;;;18.60;99.90;;;;;;5029553;28;20175;-86
2023/10/21 10:33:12;;;;;;;1.10;0.80;;;18.60;99.90;;;;;;5040525;28;20168;-87
2023/10/21 10:35:51;;;;;;;1.43;0.80;;;18.70;99.90;;;;;;5031388;28;20175;-87
2023/10/21 10:38:26;;;;;;;2.60;1.10;;;18.70;99.90;;;;;;5043318;28;20681;-87
2023/10/21 10:40:53;;;;;;;1.77;0.70;;;18.70;99.90;;;;;;5027910;28;20627;-87
2023/10/21 10:43:19;;;;;;;2.03;0.90;;;18.70;99.90;;;;;;5023697;28;20227;-87
2023/10/21 10:45:47;;;;;;;0.80;0.80;;;18.80;99.90;;;;;;5029682;28;20420;-87
2023/10/21 10:48:12;;;;;;;1.30;0.70;;;18.80;99.90;;;;;;5045629;28;20620;-87
2023/10/21 10:50:38;;;;;;;1.87;0.80;;;18.90;99.90;;;;;;5036319;28;20371;-86
2023/10/21 10:53:22;;;;;;;1.67;1.10;;;18.90;99.90;;;;;;5045148;28;20562;-87
2023/10/21 10:55:53;;;;;;;3.37;1.00;;;19.00;99.90;;;;;;5033020;28;20185;-87
2023/10/21 10:58:20;;;;;;;1.20;0.70;;;19.10;99.90;;;;;;5042277;28;20199;-87
2023/10/21 11:00:47;;;;;;;3.80;0.80;;;19.10;99.90;;;;;;5032069;28;20333;-87
2023/10/21 11:03:28;;;;;;;2.07;0.90;;;19.10;99.90;;;;;;5021292;28;20177;-87
2023/10/21 11:05:55;;;;;;;1.43;0.87;;;19.00;99.90;;;;;;5031147;28;20240;-87
2023/10/21 11:08:22;;;;;;;2.37;0.80;;;18.90;99.90;;;;;;5043380;28;20423;-87
2023/10/21 11:10:48;;;;;;;1.50;0.80;;;18.90;99.90;;;;;;5036773;28;20485;-86
2023/10/21 11:13:14;;;;;;;1.80;1.00;;;18.80;99.90;;;;;;5038371;28;20579;-87
2023/10/21 11:15:41;;;;;;;2.37;0.80;;;18.80;99.90;;;;;;5041598;28;20184;-86
2023/10/21 11:18:07;;;;;;;1.90;0.73;;;18.80;99.90;;;;;;5037933;28;20267;-86
2023/10/21 11:20:33;;;;;;;1.43;0.83;;;18.80;99.90;;;;;;5041725;28;20895;-86
2023/10/21 11:23:10;;;;;;;1.77;0.77;;;18.80;99.90;;;;;;5036990;28;20177;-87
2023/10/21 11:25:36;;;;;;;1.70;1.00;;;18.80;99.90;;;;;;5029395;28;20195;-87
2023/10/21 11:28:02;;;;;;;5.03;1.00;;;18.80;99.90;;;;;;5038380;28;20177;-87
2023/10/21 11:30:30;;;;;;;3.63;0.90;;;18.80;99.90;;;;;;5029765;28;20188;-88
2023/10/21 11:32:55;;;;;;;1.70;0.90;;;18.80;99.90;;;;;;5038080;28;20357;-88
2023/10/21 11:35:24;;;;;;;1.23;0.93;;;18.70;99.90;;;;;;5049371;28;20290;-88
2023/10/21 11:37:55;;;;;;;2.13;0.87;;;18.80;99.90;;;;;;5035594;28;20369;-88
2023/10/21 11:40:21;;;;;;;1.53;0.70;;;18.70;99.90;;;;;;5046568;28;20172;-88
2023/10/21 11:43:00;;;;;;;0.90;0.80;;;18.70;99.90;;;;;;5035012;28;20197;-88
2023/10/21 11:45:30;;;;;;;1.73;0.90;;;18.70;99.90;;;;;;5049942;28;20362;-88
2023/10/21 11:47:58;;;;;;;2.33;0.90;;;18.70;99.90;;;;;;5033696;28;20440;-89
2023/10/21 11:50:25;;;;;;;2.03;0.93;;;18.70;99.90;;;;;;5030633;28;20181;-88
2023/10/21 11:52:51;;;;;;;7.40;1.07;;;18.70;99.90;;;;;;5058314;28;20172;-88
2023/10/21 12:16:37;;;;;;;1.47;0.80;;;18.70;99.90;;;;;;5029101;28;20214;-87
2023/10/21 12:33:18;;;;;;;3.40;0.90;;;18.70;99.90;;;;;;5028145;28;20337;-88
2023/10/21 12:40:33;;;;;;;1.63;0.80;;;18.70;99.90;;;;;;5031716;28;20200;-88
2023/10/21 12:45:48;;;;;;;1.80;0.80;;;18.70;99.90;;;;;;5036543;28;20172;-87
2023/10/21 12:48:17;;;;;;;1.20;0.80;;;18.70;99.90;;;;;;5042724;28;20202;-87
2023/10/21 12:50:50;;;;;;;1.70;0.80;;;18.70;99.90;;;;;;5034928;28;20203;-87
2023/10/21 12:53:19;;;;;;;1.63;0.73;;;18.70;99.90;;;;;;5044166;28;20411;-87
2023/10/21 12:55:46;;;;;;;1.47;0.80;;;18.70;99.90;;;;;;5034721;28;20250;-87
2023/10/21 12:58:12;;;;;;;1.50;0.70;;;18.70;99.90;;;;;;5044869;28;20365;-87
2023/10/21 13:00:43;;;;;;;2.03;0.80;;;18.70;99.90;;;;;;5031360;28;20328;-87
2023/10/21 13:03:11;;;;;;;1.47;1.00;;;18.70;99.90;;;;;;5043559;28;20545;-87
2023/10/21 13:05:37;;;;;;;2.53;0.80;;;18.70;99.90;;;;;;5038104;28;20190;-87
2023/10/21 13:08:09;;;;;;;0.80;0.80;;;18.70;99.90;;;;;;5024048;28;20184;-87
2023/10/21 13:10:37;;;;;;;2.37;1.00;;;18.70;99.90;;;;;;5038091;28;20183;-86
2023/10/21 13:13:06;;;;;;;0.80;0.60;;;18.70;99.90;;;;;;5026044;28;20267;-87
2023/10/21 13:15:32;;;;;;;0.70;0.57;;;18.70;99.90;;;;;;5031976;28;20407;-87
2023/10/21 13:17:58;;;;;;;2.23;0.80;;;18.70;99.90;;;;;;5047194;28;20321;-87
2023/10/21 13:20:24;;;;;;;1.30;1.00;;;18.70;99.90;;;;;;5037342;28;20193;-86
2023/10/21 13:22:54;;;;;;;1.93;1.07;;;18.70;99.90;;;;;;5043084;28;20172;-86
2023/10/21 13:25:20;;;;;;;1.50;0.93;;;18.70;99.90;;;;;;5038528;28;20164;-87
2023/10/21 13:27:46;;;;;;;0.77;0.70;;;18.70;99.90;;;;;;5040543;28;20422;-87
2023/10/21 13:30:15;;;;;;;1.40;0.90;;;18.70;99.90;;;;;;5042726;28;20593;-88
2023/10/21 13:32:47;;;;;;;1.40;1.00;;;18.70;99.90;;;;;;5038150;28;20200;-88
2023/10/21 13:35:15;;;;;;;0.90;0.80;;;18.70;99.90;;;;;;5043444;28;20168;-88
2023/10/21 13:37:43;;;;;;;0.93;0.70;;;18.70;99.90;;;;;;5033191;28;20350;-88